createdAt,value
2018-11-20T00:00:54.968Z,20.82
2018-11-20T00:03:51.568Z,18.30
2018-11-20T00:06:35.697Z,25.08
2018-11-20T00:09:24.664Z,21.68
2018-11-20T00:12:08.010Z,16.67
2018-11-20T00:15:11.999Z,19.05
2018-11-20T00:17:57.157Z,21.05
2018-11-20T00:20:49.211Z,24.52
2018-11-20T00:23:37.165Z,23.95
2018-11-20T00:26:30.441Z,26.55
2018-11-20T00:29:19.650Z,17.25
2018-11-20T00:32:01.332Z,24.87
2018-11-20T00:34:53.146Z,23.62
2018-11-20T00:38:00.943Z,19.42
2018-11-20T00:41:01.649Z,25.32
2018-11-20T00:43:42.180Z,23.60
2018-11-20T00:46:30.525Z,20.37
2018-11-20T00:49:18.703Z,19.00
2018-11-20T00:52:17.985Z,23.20
2018-11-20T00:55:19.677Z,19.87
2018-11-20T00:58:11.988Z,22.13
2018-11-20T01:01:01.596Z,21.00
2018-11-20T01:03:48.114Z,17.77
2018-11-20T01:06:37.054Z,19.90
2018-11-20T01:09:48.010Z,22.60
2018-11-20T01:12:37.970Z,19.90
2018-11-20T01:15:26.501Z,18.73
2018-11-20T01:18:15.450Z,22.90
2018-11-20T01:21:18.660Z,16.62
2018-11-20T01:24:03.026Z,19.17
2018-11-20T01:26:51.992Z,20.43
2018-11-20T01:29:58.930Z,22.62
2018-11-20T01:33:06.785Z,23.40
2018-11-20T01:35:56.182Z,19.23
2018-11-20T01:38:46.597Z,16.40
2018-11-20T01:41:34.383Z,21.80
2018-11-20T01:44:22.116Z,18.70
2018-11-20T01:47:05.365Z,21.55
2018-11-20T01:49:53.429Z,22.80
2018-11-20T01:52:40.493Z,19.17
2018-11-20T01:55:41.670Z,19.50
2018-11-20T01:58:26.574Z,20.10
2018-11-20T02:01:12.724Z,22.45
2018-11-20T02:04:01.985Z,22.98
2018-11-20T02:06:49.623Z,19.32
2018-11-20T02:09:52.875Z,20.17
2018-11-20T02:13:00.222Z,22.37
2018-11-20T02:15:54.280Z,23.67
2018-11-20T02:18:43.056Z,20.25
2018-11-20T02:21:32.629Z,20.25
2018-11-20T02:24:24.129Z,23.15
2018-11-20T02:27:19.618Z,18.77
2018-11-20T02:30:07.492Z,27.17
2018-11-20T02:32:48.445Z,20.45
2018-11-20T02:35:40.047Z,26.77
2018-11-20T02:38:39.804Z,23.52
2018-11-20T02:41:39.342Z,20.48
2018-11-20T02:44:39.069Z,18.37
2018-11-20T02:47:39.377Z,20.97
2018-11-20T02:50:47.591Z,17.60
2018-11-20T02:53:54.968Z,25.15
2018-11-20T02:56:52.982Z,21.50
2018-11-20T02:59:41.235Z,18.10
2018-11-20T03:02:29.934Z,17.98
2018-11-20T03:05:17.925Z,19.60
2018-11-20T03:08:16.576Z,25.27
2018-11-20T03:11:05.970Z,21.62
2018-11-20T03:13:58.301Z,21.02
2018-11-20T03:16:44.540Z,21.23
2018-11-20T03:19:32.525Z,18.12
2018-11-20T03:22:30.844Z,23.67
2018-11-20T03:25:28.942Z,21.87
2018-11-20T03:31:21.448Z,21.40
2018-11-20T03:34:21.458Z,25.35
2018-11-20T03:37:12.268Z,19.75
2018-11-20T03:39:59.109Z,18.77
2018-11-20T03:42:48.065Z,16.73
2018-11-20T03:45:34.775Z,21.80
2018-11-20T03:48:35.970Z,17.52
2018-11-20T03:51:31.147Z,25.60
2018-11-20T03:54:13.682Z,20.37
2018-11-20T03:56:56.644Z,23.02
2018-11-20T03:59:48.775Z,20.75
2018-11-20T04:02:36.992Z,24.52
2018-11-20T04:05:28.967Z,21.85
2018-11-20T04:08:26.888Z,21.10
2018-11-20T04:11:14.827Z,16.20
2018-11-20T04:14:04.726Z,19.70
2018-11-20T04:17:06.849Z,22.85
2018-11-20T04:19:59.875Z,27.50
2018-11-20T04:22:58.073Z,25.25
2018-11-20T04:25:52.219Z,24.00
2018-11-20T04:28:40.250Z,23.30
2018-11-20T04:32:17.159Z,26.48
2018-11-20T04:34:59.440Z,22.52
2018-11-20T04:37:57.535Z,18.02
2018-11-20T04:40:47.146Z,25.60
2018-11-20T04:43:34.670Z,25.90
2018-11-20T04:46:22.644Z,21.70
2018-11-20T04:49:14.736Z,23.57
2018-11-20T04:52:03.492Z,22.95
2018-11-20T04:54:51.999Z,28.67
2018-11-20T04:57:41.819Z,26.57
2018-11-20T05:00:29.735Z,21.15
2018-11-20T05:03:17.706Z,19.45
2018-11-20T05:06:10.042Z,24.00
2018-11-20T05:08:51.642Z,28.50
2018-11-20T05:11:43.515Z,20.57
2018-11-20T05:14:35.588Z,23.25
2018-11-20T05:17:33.448Z,19.30
2018-11-20T05:20:21.597Z,19.75
2018-11-20T05:23:06.636Z,19.37
2018-11-20T05:25:51.992Z,29.07
2018-11-20T05:28:41.007Z,27.98
2018-11-20T05:31:33.105Z,22.77
2018-11-20T05:34:34.404Z,23.07
2018-11-20T05:37:20.135Z,26.15
2018-11-20T05:40:07.802Z,22.98
2018-11-20T05:43:15.594Z,18.95
2018-11-20T05:46:13.605Z,23.92
2018-11-20T05:49:03.650Z,23.10
2018-11-20T05:51:51.305Z,21.10
2018-11-20T05:54:40.871Z,26.45
2018-11-20T05:57:26.571Z,25.65
2018-11-20T06:00:12.717Z,27.95
2018-11-20T06:02:54.453Z,19.12
2018-11-20T06:05:44.118Z,26.90
2018-11-20T06:08:52.357Z,22.52
2018-11-20T06:11:39.463Z,25.75
2018-11-20T06:14:27.125Z,22.07
2018-11-20T06:17:16.976Z,21.50
2018-11-20T06:20:04.914Z,23.70
2018-11-20T06:22:57.318Z,25.08
2018-11-20T06:25:46.558Z,20.17
2018-11-20T06:28:41.618Z,19.77
2018-11-20T06:31:31.382Z,22.82
2018-11-20T06:34:32.050Z,18.85
2018-11-20T06:37:28.169Z,22.35
2018-11-20T06:40:35.844Z,19.48
2018-11-20T06:43:25.112Z,22.80
2018-11-20T06:46:16.798Z,23.00
2018-11-20T06:49:05.153Z,21.07
2018-11-20T06:52:09.488Z,16.93
2018-11-20T06:54:57.664Z,20.27
2018-11-20T06:58:04.520Z,20.80
2018-11-20T07:00:50.524Z,18.00
2018-11-20T07:03:45.979Z,21.37
2018-11-20T07:06:37.276Z,20.92
2018-11-20T07:09:26.082Z,19.10
2018-11-20T07:12:25.868Z,19.67
2018-11-20T07:15:21.160Z,20.95
2018-11-20T07:18:25.339Z,26.80
2018-11-20T07:21:20.803Z,18.67
2018-11-20T07:24:09.224Z,21.40
2018-11-20T07:26:56.963Z,16.70
2018-11-20T07:29:45.632Z,17.80
2018-11-20T07:32:36.679Z,17.10
2018-11-20T07:35:19.085Z,15.48
2018-11-20T07:38:08.912Z,14.95
2018-11-20T07:40:55.739Z,15.10
2018-11-20T07:44:03.853Z,19.75
2018-11-20T07:46:46.347Z,17.35
2018-11-20T07:49:41.606Z,17.20
2018-11-20T07:52:29.857Z,18.98
2018-11-20T07:55:16.575Z,12.95
2018-11-20T07:58:08.588Z,15.08
2018-11-20T08:01:09.529Z,15.80
2018-11-20T08:03:58.101Z,13.50
2018-11-20T08:06:45.958Z,16.70
2018-11-20T08:09:33.764Z,14.13
2018-11-20T08:12:23.273Z,17.27
2018-11-20T08:15:20.004Z,16.20
2018-11-20T08:18:21.243Z,17.70
2018-11-20T08:21:01.270Z,30.57
2018-11-20T08:24:02.659Z,19.07
2018-11-20T08:27:12.952Z,21.70
2018-11-20T08:30:02.101Z,14.18
2018-11-20T08:32:58.739Z,22.00
2018-11-20T08:35:46.531Z,13.68
2018-11-20T08:38:36.917Z,16.50
2018-11-20T08:41:38.065Z,19.37
2018-11-20T08:44:27.970Z,20.55
2018-11-20T08:47:25.612Z,21.48
2018-11-20T08:50:16.918Z,22.52
2018-11-20T08:52:54.675Z,18.77
2018-11-20T08:56:01.734Z,15.43
2018-11-20T08:58:50.497Z,17.10
2018-11-20T09:01:37.205Z,22.30
2018-11-20T09:04:42.013Z,19.35
2018-11-20T09:07:29.851Z,15.65
2018-11-20T09:10:26.036Z,16.35
2018-11-20T09:13:17.347Z,21.00
2018-11-20T09:16:18.952Z,15.85
2018-11-20T09:19:09.205Z,11.90
2018-11-20T09:22:13.612Z,18.05
2018-11-20T09:25:01.993Z,16.48
2018-11-20T09:28:03.769Z,21.17
2018-11-20T09:31:11.045Z,14.80
2018-11-20T09:34:10.526Z,18.73
2018-11-20T09:37:02.461Z,21.65
2018-11-20T09:39:57.946Z,19.75
2018-11-20T09:42:50.460Z,15.80
2018-11-20T09:46:30.192Z,15.93
2018-11-20T09:49:16.536Z,15.88
2018-11-20T09:52:04.629Z,14.15
2018-11-20T09:54:54.325Z,20.37
2018-11-20T09:57:46.841Z,19.40
2018-11-20T10:00:34.671Z,15.10
2018-11-20T10:03:14.827Z,15.03
2018-11-20T10:06:15.728Z,13.78
2018-11-20T10:09:03.305Z,9.65
2018-11-20T10:11:51.391Z,12.98
2018-11-20T10:14:49.187Z,13.55
2018-11-20T10:17:48.035Z,7.85
2018-11-20T10:20:36.909Z,8.75
2018-11-20T10:23:25.596Z,9.13
2018-11-20T10:26:17.183Z,14.58
2018-11-20T10:28:57.924Z,11.75
2018-11-20T10:31:49.461Z,8.60
2018-11-20T10:34:47.609Z,11.20
2018-11-20T10:37:54.713Z,11.15
2018-11-20T10:40:41.401Z,25.48
2018-11-20T10:43:28.989Z,13.13
2018-11-20T10:46:24.015Z,8.65
2018-11-20T10:49:16.248Z,8.33
2018-11-20T10:52:04.396Z,7.97
2018-11-20T10:54:59.722Z,7.10
2018-11-20T10:57:57.558Z,7.95
2018-11-20T11:00:45.751Z,8.25
2018-11-20T11:03:37.445Z,7.80
2018-11-20T11:06:25.356Z,9.08
2018-11-20T11:09:12.967Z,12.37
2018-11-20T11:12:13.641Z,10.20
2018-11-20T11:15:02.856Z,8.10
2018-11-20T11:17:49.152Z,6.35
2018-11-20T11:20:38.624Z,9.78
2018-11-20T11:23:33.887Z,9.30
2018-11-20T11:26:25.800Z,10.43
2018-11-20T11:29:26.573Z,8.55
2018-11-20T11:32:16.271Z,10.45
2018-11-20T11:35:22.529Z,9.73
2018-11-20T11:38:14.700Z,6.47
2018-11-20T11:41:02.464Z,7.58
2018-11-20T11:43:50.459Z,10.70
2018-11-20T11:46:45.133Z,7.65
2018-11-20T11:49:36.833Z,7.67
2018-11-20T11:52:31.877Z,9.03
2018-11-20T11:55:30.686Z,10.03
2018-11-20T11:58:21.109Z,7.80
2018-11-20T12:01:15.167Z,7.50
2018-11-20T12:06:52.523Z,12.07
2018-11-20T12:09:40.640Z,8.15
2018-11-20T12:12:23.682Z,9.88
2018-11-20T12:15:12.950Z,7.22
2018-11-20T12:18:14.397Z,7.87
2018-11-20T12:21:15.508Z,11.60
2018-11-20T12:24:13.587Z,8.63
2018-11-20T12:27:02.698Z,7.72
2018-11-20T12:30:00.359Z,11.97
2018-11-20T12:32:55.107Z,7.92
2018-11-20T12:35:43.227Z,8.43
2018-11-20T12:38:35.335Z,10.00
2018-11-20T12:41:36.796Z,8.75
2018-11-20T12:44:18.158Z,8.88
2018-11-20T12:47:15.249Z,7.92
2018-11-20T12:50:03.170Z,8.38
2018-11-20T12:52:54.786Z,8.33
2018-11-20T12:55:42.801Z,9.95
2018-11-20T12:58:37.926Z,8.03
2018-11-20T13:01:26.330Z,9.68
2018-11-20T13:04:14.515Z,11.75
2018-11-20T13:07:17.437Z,10.10
2018-11-20T13:10:06.685Z,8.88
2018-11-20T13:12:56.540Z,10.40
2018-11-20T13:15:43.091Z,8.30
2018-11-20T13:18:31.277Z,12.82
2018-11-20T13:21:18.996Z,12.10
2018-11-20T13:24:11.743Z,19.60
2018-11-20T13:26:58.430Z,13.10
2018-11-20T13:29:49.093Z,11.00
2018-11-20T13:32:36.849Z,12.73
2018-11-20T13:35:22.775Z,12.68
2018-11-20T13:38:08.616Z,10.85
2018-11-20T13:41:42.513Z,14.23
2018-11-20T13:44:37.326Z,13.53
2018-11-20T13:47:35.043Z,11.93
2018-11-20T13:50:23.957Z,16.12
2018-11-20T13:53:25.861Z,10.70
2018-11-20T13:56:23.676Z,10.68
2018-11-20T13:59:13.457Z,12.10
2018-11-20T14:02:02.687Z,12.93
2018-11-20T14:05:10.721Z,12.47
2018-11-20T14:07:59.243Z,15.53
2018-11-20T14:11:00.234Z,10.20
2018-11-20T14:13:53.522Z,10.60
2018-11-20T14:16:45.834Z,19.32
2018-11-20T14:19:53.402Z,13.90
2018-11-20T14:22:51.117Z,9.95
2018-11-20T14:25:54.301Z,15.98
2018-11-20T14:28:41.852Z,9.80
2018-11-20T14:31:20.663Z,19.15
2018-11-20T14:34:12.366Z,11.68
2018-11-20T14:37:16.785Z,10.82
2018-11-20T14:40:09.132Z,10.72
2018-11-20T14:43:01.283Z,9.45
2018-11-20T14:45:48.178Z,12.47
2018-11-20T14:48:37.457Z,15.30
2018-11-20T14:51:27.067Z,11.48
2018-11-20T14:54:25.129Z,19.07
2018-11-20T14:57:21.499Z,14.15
2018-11-20T15:00:09.420Z,14.05
2018-11-20T15:02:57.725Z,11.80
2018-11-20T15:05:52.730Z,11.50
2018-11-20T15:08:44.300Z,13.20
2018-11-20T15:11:32.174Z,10.55
2018-11-20T15:14:21.644Z,10.13
2018-11-20T15:17:11.244Z,10.75
2018-11-20T15:20:04.925Z,11.75
2018-11-20T15:22:58.766Z,9.33
2018-11-20T15:25:47.920Z,8.33
2018-11-20T15:28:37.375Z,9.95
2018-11-20T15:31:33.494Z,9.80
2018-11-20T15:34:40.932Z,13.60
2018-11-20T15:37:28.352Z,13.48
2018-11-20T15:40:16.758Z,12.28
2018-11-20T15:43:24.226Z,11.12
2018-11-20T15:46:03.418Z,11.83
2018-11-20T15:48:46.749Z,10.00
2018-11-20T15:51:31.551Z,12.82
2018-11-20T15:54:19.589Z,15.68
2018-11-20T15:57:08.539Z,14.15
2018-11-20T15:59:56.311Z,16.40
2018-11-20T16:02:54.904Z,13.58
2018-11-20T16:05:44.554Z,17.15
2018-11-20T16:08:32.372Z,14.28
2018-11-20T16:11:39.849Z,11.12
2018-11-20T16:14:34.761Z,11.88
2018-11-20T16:17:17.689Z,13.72
2018-11-20T16:20:04.070Z,12.10
2018-11-20T16:22:57.287Z,11.25
2018-11-20T16:25:45.809Z,10.03
2018-11-20T16:28:37.957Z,12.37
2018-11-20T16:31:30.327Z,12.20
2018-11-20T16:34:22.585Z,11.12
2018-11-20T16:37:14.274Z,9.78
2018-11-20T16:40:02.741Z,12.03
2018-11-20T16:42:51.039Z,12.73
2018-11-20T16:45:48.874Z,12.95
2018-11-20T16:48:41.194Z,11.73
2018-11-20T16:51:48.329Z,8.90
2018-11-20T16:54:40.520Z,11.78
2018-11-20T16:57:32.720Z,12.47
2018-11-20T17:00:31.393Z,13.88
2018-11-20T17:03:19.972Z,10.45
2018-11-20T17:06:07.033Z,12.98
2018-11-20T17:09:11.557Z,12.00
2018-11-20T17:12:07.499Z,9.53
2018-11-20T17:14:53.270Z,9.78
2018-11-20T17:17:47.241Z,11.60
2018-11-20T17:20:31.383Z,12.93
2018-11-20T17:24:16.502Z,11.90
2018-11-20T17:27:03.698Z,11.53
2018-11-20T17:29:52.550Z,11.35
2018-11-20T17:32:39.588Z,11.97
2018-11-20T17:35:25.871Z,12.13
2018-11-20T17:38:03.602Z,11.70
2018-11-20T17:41:03.738Z,13.95
2018-11-20T17:43:42.627Z,12.65
2018-11-20T17:46:33.709Z,11.70
2018-11-20T17:49:13.864Z,11.65
2018-11-20T17:52:01.936Z,13.03
2018-11-20T17:54:48.626Z,11.15
2018-11-20T17:57:37.786Z,10.95
2018-11-20T18:00:30.110Z,12.93
2018-11-20T18:03:22.139Z,13.25
2018-11-20T18:06:05.364Z,13.95
2018-11-20T18:08:54.953Z,17.55
2018-11-20T18:11:43.102Z,14.95
2018-11-20T18:14:31.277Z,13.38
2018-11-20T18:17:24.561Z,11.93
2018-11-20T18:20:13.738Z,15.40
2018-11-20T18:23:16.321Z,14.28
2018-11-20T18:26:02.798Z,14.47
2018-11-20T18:28:54.781Z,13.18
2018-11-20T18:31:35.974Z,14.03
2018-11-20T18:34:32.624Z,10.72
2018-11-20T18:37:20.003Z,12.45
2018-11-20T18:40:07.386Z,12.07
2018-11-20T18:42:53.774Z,13.28
2018-11-20T18:45:41.006Z,11.97
2018-11-20T18:48:32.144Z,13.98
2018-11-20T18:51:32.251Z,13.05
2018-11-20T18:54:21.339Z,11.50
2018-11-20T18:57:08.513Z,14.95
2018-11-20T19:00:12.276Z,13.48
2018-11-20T19:03:01.893Z,14.47
2018-11-20T19:05:48.684Z,14.18
2018-11-20T19:08:37.610Z,15.03
2018-11-20T19:11:39.426Z,12.98
2018-11-20T19:14:36.946Z,16.15
2018-11-20T19:17:31.048Z,14.85
2018-11-20T19:20:25.886Z,13.45
2018-11-20T19:23:20.795Z,17.32
2018-11-20T19:26:09.630Z,14.45
2018-11-20T19:28:58.382Z,12.43
2018-11-20T19:32:00.292Z,18.92
2018-11-20T19:34:53.231Z,18.73
2018-11-20T19:37:58.712Z,13.60
2018-11-20T19:40:45.591Z,14.78
2018-11-20T19:43:32.390Z,16.20
2018-11-20T19:46:24.002Z,13.50
2018-11-20T19:49:11.841Z,18.07
2018-11-20T19:52:10.024Z,14.15
2018-11-20T19:54:57.981Z,19.27
2018-11-20T19:58:01.715Z,18.50
2018-11-20T20:00:54.814Z,15.18
2018-11-20T20:03:44.458Z,14.50
2018-11-20T20:06:32.064Z,15.50
2018-11-20T20:09:36.114Z,13.98
2018-11-20T20:12:31.444Z,15.90
2018-11-20T20:15:20.118Z,11.30
2018-11-20T20:18:24.156Z,16.60
2018-11-20T20:21:24.831Z,13.28
2018-11-20T20:24:20.893Z,11.28
2018-11-20T20:27:08.043Z,14.30
2018-11-20T20:29:59.226Z,14.28
2018-11-20T20:32:46.047Z,13.10
2018-11-20T20:35:33.045Z,18.73
2018-11-20T20:38:30.142Z,11.43
2018-11-20T20:41:20.175Z,17.90
2018-11-20T20:44:09.070Z,14.40
2018-11-20T20:47:01.186Z,13.43
2018-11-20T20:49:50.459Z,15.83
2018-11-20T20:52:45.749Z,13.25
2018-11-20T20:55:48.340Z,16.85
2018-11-20T20:58:26.207Z,15.40
2018-11-20T21:01:18.151Z,15.25
2018-11-20T21:04:17.208Z,19.65
2018-11-20T21:07:04.202Z,20.77
2018-11-20T21:09:48.524Z,15.32
2018-11-20T21:12:38.470Z,11.53
2018-11-20T21:15:45.994Z,15.35
2018-11-20T21:18:34.899Z,15.98
2018-11-20T21:21:22.285Z,14.85
2018-11-20T21:24:17.787Z,13.75
2018-11-20T21:27:06.979Z,19.42
2018-11-20T21:29:53.900Z,15.32
2018-11-20T21:32:40.715Z,16.40
2018-11-20T21:35:28.848Z,18.57
2018-11-20T21:38:12.216Z,13.78
2018-11-20T21:41:06.505Z,16.67
2018-11-20T21:43:53.284Z,18.40
2018-11-20T21:46:30.458Z,16.87
2018-11-20T21:49:14.733Z,16.55
2018-11-20T21:52:11.453Z,17.57
2018-11-20T21:54:46.811Z,15.80
2018-11-20T21:57:35.321Z,21.75
2018-11-20T22:00:29.092Z,16.55
2018-11-20T22:03:34.408Z,13.83
2018-11-20T22:06:23.237Z,22.20
2018-11-20T22:09:07.035Z,18.60
2018-11-20T22:11:56.139Z,16.27
2018-11-20T22:14:43.748Z,18.37
2018-11-20T22:17:30.810Z,10.53
2018-11-20T22:20:37.051Z,18.52
2018-11-20T22:23:25.203Z,13.68
2018-11-20T22:26:12.327Z,19.02
2018-11-20T22:29:01.625Z,16.42
2018-11-20T22:31:50.975Z,16.30
2018-11-20T22:34:38.523Z,16.48
2018-11-20T22:37:44.473Z,22.20
2018-11-20T22:40:34.665Z,16.35
2018-11-20T22:43:23.017Z,19.25
2018-11-20T22:46:14.964Z,16.93
2018-11-20T22:48:52.689Z,14.93
2018-11-20T22:51:59.093Z,19.37
2018-11-20T22:54:58.353Z,18.82
2018-11-20T22:57:43.290Z,15.30
2018-11-20T23:00:48.164Z,17.60
2018-11-20T23:03:33.658Z,15.90
2018-11-20T23:06:32.774Z,17.75
2018-11-20T23:09:02.167Z,15.50
2018-11-20T23:11:31.327Z,17.90
2018-11-20T23:14:00.777Z,21.95
2018-11-20T23:16:30.580Z,20.00
2018-11-20T23:18:59.945Z,19.50
2018-11-20T23:21:29.198Z,20.32
2018-11-20T23:23:59.080Z,15.80
2018-11-20T23:26:28.856Z,14.25
2018-11-20T23:28:59.363Z,22.00
2018-11-20T23:31:28.875Z,16.05
2018-11-20T23:34:00.912Z,16.10
2018-11-20T23:36:28.133Z,20.27
2018-11-20T23:38:57.817Z,17.87
2018-11-20T23:41:27.805Z,16.55
2018-11-20T23:44:00.275Z,18.27
2018-11-20T23:46:29.775Z,22.67
2018-11-20T23:48:59.897Z,21.42
2018-11-20T23:51:29.696Z,19.87
2018-11-20T23:54:02.190Z,18.37
2018-11-20T23:56:30.396Z,22.07
2018-11-20T23:59:00.608Z,16.05
